createdAt,value
2019-02-28T00:01:04.638Z,100604.41
2019-02-28T00:03:33.555Z,100607.38
2019-02-28T00:06:02.245Z,100606.59
2019-02-28T00:08:31.011Z,100599.77
2019-02-28T00:11:02.056Z,100599.77
2019-02-28T00:13:30.152Z,100596.08
2019-02-28T00:16:00.195Z,100601.16
2019-02-28T00:18:29.287Z,100591.32
2019-02-28T00:20:57.924Z,100597.95
2019-02-28T00:23:26.591Z,100596.14
2019-02-28T00:25:55.347Z,100571.16
2019-02-28T00:28:25.878Z,100571.16
2019-02-28T00:30:54.437Z,100570.25
2019-02-28T00:33:23.017Z,100561.95
2019-02-28T00:35:51.572Z,100567.08
2019-02-28T00:38:20.236Z,100565.23
2019-02-28T00:40:48.818Z,100561.55
2019-02-28T00:43:17.451Z,100561.55
2019-02-28T00:45:46.056Z,100556.16
2019-02-28T00:48:14.679Z,100556.95
2019-02-28T00:50:43.263Z,100542.88
2019-02-28T00:53:11.924Z,100546.27
2019-02-28T00:55:40.640Z,100549.30
2019-02-28T00:58:09.235Z,100538.73
2019-02-28T01:00:38.212Z,100542.94
2019-02-28T01:03:06.882Z,100540.42
2019-02-28T01:05:36.590Z,100537.36
2019-02-28T01:08:06.035Z,100531.35
2019-02-28T01:10:38.715Z,100533.13
2019-02-28T01:13:05.468Z,100523.56
2019-02-28T01:15:34.137Z,100522.19
2019-02-28T01:18:02.733Z,100518.80
2019-02-28T01:20:31.304Z,100517.61
2019-02-28T01:22:59.929Z,100524.06
2019-02-28T01:25:28.575Z,100517.11
2019-02-28T01:27:57.136Z,100511.01
2019-02-28T01:30:25.799Z,100511.01
2019-02-28T01:32:54.428Z,100512.63
2019-02-28T01:35:23.002Z,100513.62
2019-02-28T01:37:52.359Z,100505.33
2019-02-28T01:40:21.751Z,100510.88
2019-02-28T01:42:53.938Z,100504.05
2019-02-28T01:45:20.705Z,100499.41
2019-02-28T01:47:51.774Z,100490.95
2019-02-28T01:50:19.715Z,100486.22
2019-02-28T01:52:48.478Z,100486.86
2019-02-28T01:55:17.118Z,100488.97
2019-02-28T01:57:45.675Z,100459.09
2019-02-28T02:00:20.422Z,100459.09
2019-02-28T02:02:49.000Z,100463.85
2019-02-28T02:05:18.050Z,100458.27
2019-02-28T02:07:46.685Z,100458.27
2019-02-28T02:10:21.708Z,100461.61
2019-02-28T02:12:51.881Z,100465.91
2019-02-28T02:15:20.926Z,100465.91
2019-02-28T02:17:49.575Z,100459.59
2019-02-28T02:20:20.089Z,100459.59
2019-02-28T02:22:48.653Z,100442.23
2019-02-28T02:25:17.422Z,100449.79
2019-02-28T02:27:46.013Z,100444.55
2019-02-28T02:30:24.752Z,100432.63
2019-02-28T02:32:53.271Z,100430.78
2019-02-28T02:35:21.910Z,100431.41
2019-02-28T02:37:50.527Z,100431.41
2019-02-28T02:40:22.937Z,100429.35
2019-02-28T02:42:50.091Z,100443.47
2019-02-28T02:45:18.975Z,100443.42
2019-02-28T02:47:47.622Z,100422.73
2019-02-28T02:50:16.460Z,100397.94
2019-02-28T02:52:45.124Z,100417.05
2019-02-28T02:55:14.920Z,100411.08
2019-02-28T02:57:50.409Z,100426.55
2019-02-28T03:00:16.864Z,100423.02
2019-02-28T03:02:45.925Z,100425.94
2019-02-28T03:05:15.150Z,100443.21
2019-02-28T03:07:43.816Z,100440.42
2019-02-28T03:10:17.657Z,100425.28
2019-02-28T03:12:45.451Z,100412.07
2019-02-28T03:15:24.963Z,100429.53
2019-02-28T03:17:49.354Z,100431.02
2019-02-28T03:20:18.300Z,100427.54
2019-02-28T03:22:46.969Z,100427.54
2019-02-28T03:25:18.800Z,100422.70
2019-02-28T03:27:55.127Z,100416.95
2019-02-28T03:30:27.678Z,100401.64
2019-02-28T03:32:49.655Z,100403.84
2019-02-28T03:35:18.376Z,100399.23
2019-02-28T03:37:47.241Z,100394.09
2019-02-28T03:40:15.951Z,100397.01
2019-02-28T03:42:44.534Z,100395.22
2019-02-28T03:45:17.354Z,100393.16
2019-02-28T03:47:45.969Z,100397.84
2019-02-28T03:50:14.913Z,100402.36
2019-02-28T03:52:44.661Z,100396.39
2019-02-28T03:55:14.611Z,100398.45
2019-02-28T03:57:43.425Z,100389.30
2019-02-28T04:00:18.045Z,100389.66
2019-02-28T04:02:47.079Z,100387.45
2019-02-28T04:05:15.707Z,100379.37
2019-02-28T04:07:44.319Z,100376.13
2019-02-28T04:10:16.746Z,100369.20
2019-02-28T04:12:46.903Z,100371.34
2019-02-28T04:15:20.508Z,100378.30
2019-02-28T04:17:49.051Z,100377.82
2019-02-28T04:20:18.090Z,100375.03
2019-02-28T04:22:46.752Z,100369.89
2019-02-28T04:25:15.378Z,100368.50
2019-02-28T04:27:43.988Z,100369.89
2019-02-28T04:30:14.350Z,100370.94
2019-02-28T04:32:42.984Z,100368.38
2019-02-28T04:35:12.519Z,100363.80
2019-02-28T04:37:46.780Z,100360.42
2019-02-28T04:40:13.563Z,100353.68
2019-02-28T04:42:42.118Z,100356.36
2019-02-28T04:45:13.126Z,100356.46
2019-02-28T04:47:41.888Z,100345.06
2019-02-28T04:50:12.212Z,100346.83
2019-02-28T04:52:46.755Z,100341.90
2019-02-28T04:55:12.184Z,100345.08
2019-02-28T04:57:42.395Z,100338.82
2019-02-28T05:00:18.386Z,100333.84
2019-02-28T05:02:46.944Z,100331.94
2019-02-28T05:05:15.588Z,100336.92
2019-02-28T05:07:44.272Z,100326.66
2019-02-28T05:10:13.404Z,100326.51
2019-02-28T05:12:42.033Z,100328.45
2019-02-28T05:15:15.043Z,100323.27
2019-02-28T05:17:43.676Z,100316.34
2019-02-28T05:20:12.469Z,100320.29
2019-02-28T05:22:41.293Z,100317.73
2019-02-28T05:25:17.420Z,100322.95
2019-02-28T05:27:44.255Z,100313.40
2019-02-28T05:30:19.542Z,100319.97
2019-02-28T05:32:47.599Z,100315.41
2019-02-28T05:35:16.149Z,100313.03
2019-02-28T05:37:48.185Z,100315.23
2019-02-28T05:40:15.967Z,100317.94
2019-02-28T05:42:44.613Z,100320.78
2019-02-28T05:45:14.866Z,100319.08
2019-02-28T05:47:46.625Z,100318.92
2019-02-28T05:50:16.823Z,100316.64
2019-02-28T05:52:44.461Z,100313.88
2019-02-28T05:55:13.462Z,100311.86
2019-02-28T05:57:43.284Z,100313.04
2019-02-28T06:00:15.838Z,100313.10
2019-02-28T06:02:44.472Z,100299.95
2019-02-28T06:05:13.154Z,100311.69
2019-02-28T06:07:41.835Z,100321.70
2019-02-28T06:10:12.365Z,100327.18
2019-02-28T06:12:43.947Z,100330.81
2019-02-28T06:15:13.090Z,100328.78
2019-02-28T06:17:41.708Z,100333.50
2019-02-28T06:20:16.428Z,100333.31
2019-02-28T06:22:42.653Z,100332.13
2019-02-28T06:25:12.501Z,100331.50
2019-02-28T06:27:42.312Z,100338.25
2019-02-28T06:30:13.829Z,100322.00
2019-02-28T06:32:42.383Z,100322.61
2019-02-28T06:35:16.012Z,100320.89
2019-02-28T06:37:41.517Z,100320.05
2019-02-28T06:40:14.484Z,100317.77
2019-02-28T06:42:43.436Z,100316.11
2019-02-28T06:45:18.526Z,100307.12
2019-02-28T06:47:49.670Z,100313.77
2019-02-28T06:50:17.775Z,100306.78
2019-02-28T06:52:46.357Z,100282.59
2019-02-28T06:55:16.633Z,100301.02
2019-02-28T06:57:46.680Z,100298.95
2019-02-28T07:00:17.313Z,100307.14
2019-02-28T07:02:46.044Z,100301.98
2019-02-28T07:05:14.686Z,100294.55
2019-02-28T07:07:45.606Z,100294.55
2019-02-28T07:10:19.328Z,100294.02
2019-02-28T07:12:49.374Z,100287.52
2019-02-28T07:15:24.734Z,100291.01
2019-02-28T07:17:52.633Z,100293.41
2019-02-28T07:20:21.511Z,100284.37
2019-02-28T07:22:55.574Z,100280.31
2019-02-28T07:25:22.174Z,100285.81
2019-02-28T07:27:53.623Z,100282.92
2019-02-28T07:30:23.818Z,100280.69
2019-02-28T07:32:52.372Z,100283.00
2019-02-28T07:35:21.136Z,100277.36
2019-02-28T07:37:53.218Z,100278.91
2019-02-28T07:40:20.195Z,100272.84
2019-02-28T07:42:48.856Z,100259.61
2019-02-28T07:45:17.308Z,100263.50
2019-02-28T07:47:51.687Z,100257.70
2019-02-28T07:50:18.465Z,100245.67
2019-02-28T07:52:48.602Z,100248.53
2019-02-28T07:55:23.567Z,100249.63
2019-02-28T07:57:56.291Z,100243.48
2019-02-28T08:00:24.415Z,100237.25
2019-02-28T08:02:53.043Z,100241.41
2019-02-28T08:05:21.775Z,100235.77
2019-02-28T08:07:52.303Z,100231.98
2019-02-28T08:10:23.643Z,100230.05
2019-02-28T08:12:52.253Z,100225.23
2019-02-28T08:15:25.976Z,100220.37
2019-02-28T08:17:54.591Z,100224.62
2019-02-28T08:20:23.255Z,100213.45
2019-02-28T08:22:52.004Z,100210.22
2019-02-28T08:25:20.645Z,100211.75
2019-02-28T08:27:49.310Z,100212.77
2019-02-28T08:30:23.563Z,100206.80
2019-02-28T08:32:52.230Z,100201.42
2019-02-28T08:35:20.864Z,100192.83
2019-02-28T08:37:55.586Z,100196.14
2019-02-28T08:40:22.067Z,100184.21
2019-02-28T08:42:50.784Z,100179.11
2019-02-28T08:45:19.411Z,100180.77
2019-02-28T08:47:48.167Z,100174.45
2019-02-28T08:50:24.775Z,100170.61
2019-02-28T08:52:56.150Z,100170.16
2019-02-28T08:55:28.698Z,100167.58
2019-02-28T08:57:58.116Z,100162.41
2019-02-28T09:00:31.188Z,100164.16
2019-02-28T09:02:56.196Z,100155.34
2019-02-28T09:05:26.312Z,100150.86
2019-02-28T09:07:55.331Z,100150.47
2019-02-28T09:10:25.478Z,100143.21
2019-02-28T09:12:54.159Z,100131.27
2019-02-28T09:15:23.158Z,100132.70
2019-02-28T09:17:51.880Z,100133.66
2019-02-28T09:20:20.631Z,100117.16
2019-02-28T09:22:49.277Z,100124.64
2019-02-28T09:25:22.910Z,100118.78
2019-02-28T09:27:51.828Z,100112.74
2019-02-28T09:30:38.077Z,100114.08
2019-02-28T09:33:06.772Z,100110.83
2019-02-28T09:35:35.415Z,100100.94
2019-02-28T09:38:08.056Z,100100.47
2019-02-28T09:40:34.789Z,100097.27
2019-02-28T09:43:03.427Z,100101.80
2019-02-28T09:45:33.236Z,100090.55
2019-02-28T09:48:02.408Z,100086.98
2019-02-28T09:50:33.000Z,100083.78
2019-02-28T09:53:01.493Z,100079.75
2019-02-28T09:55:34.137Z,100073.84
2019-02-28T09:58:00.525Z,100070.29
2019-02-28T10:00:30.330Z,100061.92
2019-02-28T10:02:59.013Z,100054.37
2019-02-28T10:05:27.522Z,100051.88
2019-02-28T10:08:01.529Z,100048.59
2019-02-28T10:10:28.345Z,100053.77
2019-02-28T10:12:57.043Z,100037.88
2019-02-28T10:15:26.282Z,100035.22
2019-02-28T10:17:55.019Z,100037.56
2019-02-28T10:20:37.604Z,100023.32
2019-02-28T10:23:06.278Z,100027.55
2019-02-28T10:25:41.046Z,100024.49
2019-02-28T10:28:05.492Z,100010.19
2019-02-28T10:30:34.159Z,100010.19
2019-02-28T10:33:04.418Z,100001.20
2019-02-28T10:35:33.408Z,99992.14
2019-02-28T10:38:03.732Z,99998.41
2019-02-28T10:40:34.001Z,99994.83
2019-02-28T10:43:02.631Z,99980.59
2019-02-28T10:45:31.232Z,99971.37
2019-02-28T10:48:02.916Z,99966.50
2019-02-28T10:50:35.603Z,99954.25
2019-02-28T10:53:06.099Z,99950.36
2019-02-28T10:55:35.165Z,99949.89
2019-02-28T10:58:04.218Z,99937.35
2019-02-28T11:00:34.830Z,99937.42
2019-02-28T11:03:03.787Z,99939.50
2019-02-28T11:05:37.381Z,99922.80
2019-02-28T11:08:09.803Z,99914.32
2019-02-28T11:10:39.348Z,99907.70
2019-02-28T11:13:10.920Z,99900.29
2019-02-28T11:15:39.881Z,99888.35
2019-02-28T11:18:10.023Z,99894.89
2019-02-28T11:20:39.901Z,99889.27
2019-02-28T11:23:14.320Z,99880.13
2019-02-28T11:25:39.803Z,99883.32
2019-02-28T11:28:08.981Z,99875.03
2019-02-28T11:30:37.873Z,99874.38
2019-02-28T11:33:06.967Z,99878.85
2019-02-28T11:35:35.652Z,99856.77
2019-02-28T11:38:05.629Z,99867.59
2019-02-28T11:40:34.835Z,99863.16
2019-02-28T11:43:04.258Z,99851.49
2019-02-28T11:45:36.168Z,99844.22
2019-02-28T11:48:10.552Z,99833.87
2019-02-28T11:50:41.867Z,99835.67
2019-02-28T11:53:09.829Z,99820.73
2019-02-28T11:55:38.873Z,99816.45
2019-02-28T11:58:07.499Z,99810.52
2019-02-28T12:00:37.642Z,99796.05
2019-02-28T12:03:06.376Z,99807.05
2019-02-28T12:05:35.011Z,99794.50
2019-02-28T12:08:09.354Z,99781.46
2019-02-28T12:10:34.744Z,99783.06
2019-02-28T12:13:03.449Z,99778.92
2019-02-28T12:15:39.003Z,99772.09
2019-02-28T12:18:07.963Z,99767.00
2019-02-28T12:20:36.684Z,99759.47
2019-02-28T12:23:05.323Z,99748.78
2019-02-28T12:25:34.068Z,99742.02
2019-02-28T12:28:06.341Z,99740.48
2019-02-28T12:30:34.246Z,99729.11
2019-02-28T12:33:03.076Z,99738.59
2019-02-28T12:35:37.507Z,99718.05
2019-02-28T12:38:02.256Z,99715.92
2019-02-28T12:40:33.489Z,99708.62
2019-02-28T12:43:05.318Z,99700.31
2019-02-28T12:45:36.217Z,99699.83
2019-02-28T12:48:05.104Z,99705.08
2019-02-28T12:50:33.875Z,99693.28
2019-02-28T12:53:02.521Z,99677.50
2019-02-28T12:55:31.487Z,99679.56
2019-02-28T12:58:00.496Z,99668.11
2019-02-28T13:00:37.367Z,99660.31
2019-02-28T13:03:06.461Z,99651.48
2019-02-28T13:05:35.091Z,99647.83
2019-02-28T13:08:05.873Z,99640.75
2019-02-28T13:10:34.126Z,99642.07
2019-02-28T13:13:06.854Z,99637.98
2019-02-28T13:15:33.279Z,99649.56
2019-02-28T13:18:07.504Z,99633.14
2019-02-28T13:20:38.150Z,99633.86
2019-02-28T13:23:06.997Z,99626.78
2019-02-28T13:25:35.742Z,99631.56
2019-02-28T13:28:06.009Z,99621.81
2019-02-28T13:30:34.620Z,99615.14
2019-02-28T13:33:03.395Z,99619.37
2019-02-28T13:35:47.170Z,99618.31
2019-02-28T13:38:33.781Z,99607.85
2019-02-28T13:41:02.487Z,99597.51
2019-02-28T13:43:32.098Z,99592.18
2019-02-28T13:46:00.932Z,99590.85
2019-02-28T13:48:32.988Z,99584.13
2019-02-28T13:51:02.571Z,99568.50
2019-02-28T13:53:31.791Z,99566.34
2019-02-28T13:56:00.745Z,99564.33
2019-02-28T13:58:29.578Z,99565.41
2019-02-28T14:00:58.468Z,99568.75
2019-02-28T14:03:27.533Z,99557.80
2019-02-28T14:05:56.765Z,99560.17
2019-02-28T14:08:26.001Z,99553.25
2019-02-28T14:10:55.274Z,99554.84
2019-02-28T14:13:23.920Z,99544.13
2019-02-28T14:15:53.311Z,99543.84
2019-02-28T14:18:23.965Z,99546.38
2019-02-28T14:20:53.333Z,99543.16
2019-02-28T14:23:22.216Z,99546.50
2019-02-28T14:25:51.327Z,99527.45
2019-02-28T14:28:20.268Z,99525.98
2019-02-28T14:30:49.287Z,99524.17
2019-02-28T14:33:19.378Z,99519.72
2019-02-28T14:35:48.569Z,99515.33
2019-02-28T14:38:17.192Z,99512.49
2019-02-28T14:40:45.942Z,99513.97
2019-02-28T14:43:14.594Z,99512.63
2019-02-28T14:45:47.250Z,99515.41
2019-02-28T14:48:17.017Z,99498.53
2019-02-28T14:50:46.066Z,99501.55
2019-02-28T14:53:16.668Z,99490.67
2019-02-28T14:55:45.431Z,99486.91
2019-02-28T14:58:14.087Z,99474.68
2019-02-28T15:00:43.462Z,99473.16
2019-02-28T15:03:12.408Z,99472.66
2019-02-28T15:05:46.144Z,99470.05
2019-02-28T15:08:16.168Z,99459.83
2019-02-28T15:10:45.111Z,99457.28
2019-02-28T15:13:13.699Z,99461.47
2019-02-28T15:15:42.578Z,99437.44
2019-02-28T15:18:14.558Z,99435.79
2019-02-28T15:20:41.562Z,99419.22
2019-02-28T15:23:10.362Z,99411.31
2019-02-28T15:25:39.017Z,99413.34
2019-02-28T15:28:10.673Z,99411.70
2019-02-28T15:30:39.941Z,99404.45
2019-02-28T15:33:09.629Z,99395.06
2019-02-28T15:35:38.305Z,99392.00
2019-02-28T15:38:09.144Z,99392.90
2019-02-28T15:40:45.748Z,99393.20
2019-02-28T15:43:17.419Z,99382.48
2019-02-28T15:45:45.134Z,99381.71
2019-02-28T15:48:13.801Z,99384.80
2019-02-28T15:50:42.479Z,99375.50
2019-02-28T15:53:14.429Z,99386.25
2019-02-28T15:55:41.964Z,99381.59
2019-02-28T15:58:10.772Z,99379.62
2019-02-28T16:00:39.865Z,99375.56
2019-02-28T16:03:08.607Z,99370.00
2019-02-28T16:05:42.434Z,99370.67
2019-02-28T16:08:10.505Z,99361.48
2019-02-28T16:10:38.017Z,99358.91
2019-02-28T16:13:07.967Z,99348.51
2019-02-28T16:15:36.744Z,99355.81
2019-02-28T16:18:08.666Z,99359.27
2019-02-28T16:20:38.178Z,99360.84
2019-02-28T16:23:06.836Z,99357.68
2019-02-28T16:25:37.318Z,99365.98
2019-02-28T16:28:08.873Z,99359.83
2019-02-28T16:30:39.204Z,99366.79
2019-02-28T16:33:08.142Z,99362.95
2019-02-28T16:35:36.872Z,99370.75
2019-02-28T16:38:06.396Z,99367.05
2019-02-28T16:40:36.132Z,99369.59
2019-02-28T16:43:04.875Z,99373.78
2019-02-28T16:45:40.957Z,99368.64
2019-02-28T16:48:08.734Z,99369.40
2019-02-28T16:50:38.030Z,99368.66
2019-02-28T16:53:06.674Z,99362.52
2019-02-28T16:55:35.377Z,99368.70
2019-02-28T16:58:04.259Z,99360.21
2019-02-28T17:00:32.989Z,99368.55
2019-02-28T17:03:04.064Z,99368.35
2019-02-28T17:05:32.251Z,99369.44
2019-02-28T17:08:00.974Z,99365.97
2019-02-28T17:10:33.891Z,99368.16
2019-02-28T17:13:13.060Z,99370.38
2019-02-28T17:15:43.481Z,99372.98
2019-02-28T17:18:21.652Z,99370.78
2019-02-28T17:20:50.014Z,99371.08
2019-02-28T17:23:18.813Z,99370.53
2019-02-28T17:25:47.561Z,99368.76
2019-02-28T17:28:23.876Z,99361.53
2019-02-28T17:31:03.012Z,99364.58
2019-02-28T17:33:32.068Z,99363.25
2019-02-28T17:36:00.641Z,99360.28
2019-02-28T17:38:32.303Z,99360.93
2019-02-28T17:41:01.900Z,99362.98
2019-02-28T17:43:30.898Z,99355.73
2019-02-28T17:45:59.512Z,99353.70
2019-02-28T17:48:56.873Z,99351.87
2019-02-28T17:51:34.151Z,99345.13
2019-02-28T17:54:20.923Z,99343.45
2019-02-28T17:56:56.326Z,99341.50
2019-02-28T17:59:50.712Z,99337.27
2019-02-28T18:02:34.250Z,99339.01
2019-02-28T18:05:14.883Z,99335.84
2019-02-28T18:07:57.859Z,99331.61
2019-02-28T18:10:47.980Z,99330.59
2019-02-28T18:13:25.425Z,99335.95
2019-02-28T18:16:12.147Z,99325.69
2019-02-28T18:19:06.382Z,99323.05
2019-02-28T18:21:53.224Z,99327.28
2019-02-28T18:24:34.709Z,99331.55
2019-02-28T18:27:22.899Z,99330.03
2019-02-28T18:29:57.163Z,99327.82
2019-02-28T18:32:25.798Z,99327.82
2019-02-28T18:34:56.261Z,99328.73
2019-02-28T18:37:25.451Z,99323.44
2019-02-28T18:39:54.234Z,99326.05
2019-02-28T18:42:23.292Z,99329.02
2019-02-28T18:44:52.138Z,99324.95
2019-02-28T18:47:20.840Z,99328.27
2019-02-28T18:49:49.608Z,99334.44
2019-02-28T18:52:20.171Z,99321.74
2019-02-28T18:54:48.851Z,99330.08
2019-02-28T18:57:17.712Z,99329.72
2019-02-28T18:59:48.260Z,99327.30
2019-02-28T19:02:17.059Z,99328.89
2019-02-28T19:04:45.705Z,99321.95
2019-02-28T19:07:14.407Z,99327.66
2019-02-28T19:09:43.207Z,99328.58
2019-02-28T19:12:12.007Z,99329.14
2019-02-28T19:14:40.672Z,99330.77
2019-02-28T19:17:09.292Z,99328.44
2019-02-28T19:19:37.972Z,99337.47
2019-02-28T19:22:08.052Z,99337.53
2019-02-28T19:24:39.602Z,99334.33
2019-02-28T19:27:08.281Z,99337.00
2019-02-28T19:29:36.924Z,99329.73
2019-02-28T19:32:05.690Z,99337.31
2019-02-28T19:34:34.393Z,99335.30
2019-02-28T19:37:03.024Z,99331.48
2019-02-28T19:39:31.661Z,99336.13
2019-02-28T19:42:00.425Z,99338.74
2019-02-28T19:44:29.089Z,99344.52
2019-02-28T19:46:57.724Z,99351.59
2019-02-28T19:49:26.322Z,99351.02
2019-02-28T19:51:54.961Z,99353.55
2019-02-28T19:54:25.104Z,99353.41
2019-02-28T19:56:53.964Z,99354.58
2019-02-28T19:59:24.069Z,99353.66
2019-02-28T20:01:52.629Z,99351.04
2019-02-28T20:04:21.545Z,99356.17
2019-02-28T20:06:50.245Z,99351.05
2019-02-28T20:09:19.273Z,99354.67
2019-02-28T20:11:47.955Z,99352.87
2019-02-28T20:14:16.588Z,99356.66
2019-02-28T20:16:45.464Z,99355.22
2019-02-28T20:19:14.222Z,99354.05
2019-02-28T20:21:42.801Z,99360.02
2019-02-28T20:24:11.513Z,99359.33
2019-02-28T20:26:40.267Z,99355.69
2019-02-28T20:29:08.996Z,99361.85
2019-02-28T20:31:38.172Z,99354.86
2019-02-28T20:34:07.334Z,99367.42
2019-02-28T20:36:36.135Z,99364.68
2019-02-28T20:39:07.059Z,99367.64
2019-02-28T20:41:35.666Z,99365.92
2019-02-28T20:44:04.426Z,99364.21
2019-02-28T20:46:33.084Z,99368.27
2019-02-28T20:49:01.942Z,99370.97
2019-02-28T20:51:30.822Z,99370.45
2019-02-28T20:53:59.689Z,99376.81
2019-02-28T20:56:28.442Z,99374.94
2019-02-28T20:58:57.358Z,99372.02
2019-02-28T21:01:25.991Z,99376.64
2019-02-28T21:03:56.693Z,99381.66
2019-02-28T21:06:25.619Z,99383.91
2019-02-28T21:08:55.971Z,99392.61
2019-02-28T21:11:24.945Z,99391.39
2019-02-28T21:13:53.681Z,99400.73
2019-02-28T21:16:22.391Z,99399.82
2019-02-28T21:18:51.103Z,99409.06
2019-02-28T21:21:19.727Z,99423.14
2019-02-28T21:23:48.362Z,99427.28
2019-02-28T21:26:17.232Z,99424.83
2019-02-28T21:28:47.516Z,99429.24
2019-02-28T21:31:16.145Z,99432.84
2019-02-28T21:33:44.810Z,99438.80
2019-02-28T21:36:13.462Z,99434.94
2019-02-28T21:38:42.382Z,99434.39
2019-02-28T21:41:11.092Z,99445.66
2019-02-28T21:43:39.874Z,99451.81
2019-02-28T21:46:08.519Z,99452.55
2019-02-28T21:48:37.201Z,99454.91
2019-02-28T21:51:06.131Z,99451.05
2019-02-28T21:53:34.609Z,99455.08
2019-02-28T21:56:03.489Z,99458.37
2019-02-28T21:58:32.084Z,99462.75
2019-02-28T22:01:00.771Z,99467.95
2019-02-28T22:03:29.448Z,99461.37
2019-02-28T22:05:58.102Z,99469.04
2019-02-28T22:08:26.822Z,99469.16
2019-02-28T22:10:55.597Z,99469.40
2019-02-28T22:13:24.358Z,99474.26
2019-02-28T22:15:53.044Z,99479.09
2019-02-28T22:18:21.742Z,99474.38
2019-02-28T22:20:50.391Z,99472.12
2019-02-28T22:23:18.968Z,99477.45
2019-02-28T22:25:47.553Z,99477.31
2019-02-28T22:28:16.170Z,99476.63
2019-02-28T22:30:46.386Z,99482.05
2019-02-28T22:33:19.538Z,99481.35
2019-02-28T22:35:49.789Z,99483.22
2019-02-28T22:38:18.393Z,99490.19
2019-02-28T22:40:47.131Z,99484.52
2019-02-28T22:43:15.682Z,99492.19
2019-02-28T22:45:44.335Z,99488.88
2019-02-28T22:48:13.181Z,99490.53
2019-02-28T22:50:41.812Z,99492.78
2019-02-28T22:53:10.543Z,99494.55
2019-02-28T22:55:39.216Z,99491.84
2019-02-28T22:58:09.839Z,99484.77
2019-02-28T23:01:00.840Z,99487.81
2019-02-28T23:03:31.563Z,99503.06
2019-02-28T23:06:00.501Z,99506.81
2019-02-28T23:08:29.385Z,99507.98
2019-02-28T23:10:58.052Z,99502.80
2019-02-28T23:13:26.687Z,99509.53
2019-02-28T23:15:56.989Z,99503.04
2019-02-28T23:18:25.616Z,99510.23
2019-02-28T23:20:54.316Z,99512.48
2019-02-28T23:23:23.025Z,99517.32
2019-02-28T23:25:51.660Z,99517.55
2019-02-28T23:28:32.196Z,99515.79
2019-02-28T23:31:18.783Z,99514.74
2019-02-28T23:33:47.820Z,99512.96
2019-02-28T23:36:16.462Z,99512.98
2019-02-28T23:38:45.045Z,99516.51
2019-02-28T23:41:13.626Z,99511.33
2019-02-28T23:43:42.260Z,99512.39
2019-02-28T23:46:10.867Z,99513.45
2019-02-28T23:48:42.422Z,99511.80
2019-02-28T23:51:11.224Z,99518.77
2019-02-28T23:53:39.860Z,99518.66
2019-02-28T23:56:08.528Z,99521.48
2019-02-28T23:58:37.110Z,99520.87
